createdAt,value
2023-09-10T00:01:21.078Z,9.90
2023-09-10T00:03:49.082Z,10.23
2023-09-10T00:06:16.547Z,10.35
2023-09-10T00:08:44.091Z,9.60
2023-09-10T00:11:11.807Z,9.82
2023-09-10T00:13:39.840Z,8.45
2023-09-10T00:16:07.929Z,9.48
2023-09-10T00:18:36.679Z,9.00
2023-09-10T00:21:04.622Z,8.60
2023-09-10T00:23:31.776Z,7.90
2023-09-10T00:25:59.380Z,8.65
2023-09-10T00:28:27.616Z,8.35
2023-09-10T00:30:55.549Z,9.02
2023-09-10T00:33:23.205Z,8.30
2023-09-10T00:35:51.056Z,8.57
2023-09-10T00:38:18.773Z,8.55
2023-09-10T00:40:46.238Z,7.93
2023-09-10T00:43:13.714Z,8.27
2023-09-10T00:45:40.950Z,7.75
2023-09-10T00:48:08.099Z,8.10
2023-09-10T00:50:35.917Z,8.52
2023-09-10T00:53:03.363Z,8.27
2023-09-10T00:55:30.959Z,8.27
2023-09-10T00:57:58.473Z,7.82
2023-09-10T01:00:27.094Z,8.52
2023-09-10T01:02:54.394Z,7.85
2023-09-10T01:05:22.077Z,7.47
2023-09-10T01:07:49.123Z,7.75
2023-09-10T01:10:16.847Z,7.18
2023-09-10T01:13:02.227Z,6.90
2023-09-10T01:15:41.292Z,8.63
2023-09-10T01:18:17.729Z,6.47
2023-09-10T01:20:51.613Z,6.60
2023-09-10T01:23:39.254Z,6.75
2023-09-10T01:26:06.823Z,6.57
2023-09-10T01:28:34.114Z,7.45
2023-09-10T01:31:02.111Z,6.90
2023-09-10T01:33:36.611Z,6.95
2023-09-10T01:36:11.503Z,7.57
2023-09-10T01:39:03.047Z,7.75
2023-09-10T01:41:31.005Z,7.47
2023-09-10T01:43:59.013Z,7.30
2023-09-10T01:46:26.525Z,7.13
2023-09-10T01:48:54.477Z,7.10
2023-09-10T01:51:22.202Z,7.22
2023-09-10T01:53:50.081Z,6.95
2023-09-10T01:56:17.664Z,7.32
2023-09-10T01:58:45.448Z,7.60
2023-09-10T02:01:12.983Z,7.50
2023-09-10T02:03:40.381Z,7.65
2023-09-10T02:06:07.913Z,7.65
2023-09-10T02:08:35.631Z,8.10
2023-09-10T02:11:06.328Z,8.02
2023-09-10T02:13:34.111Z,8.45
2023-09-10T02:16:02.268Z,8.30
2023-09-10T02:18:30.555Z,7.85
2023-09-10T02:20:58.537Z,8.45
2023-09-10T02:23:26.862Z,7.25
2023-09-10T02:25:54.227Z,6.95
2023-09-10T02:28:24.584Z,6.30
2023-09-10T02:30:52.287Z,7.50
2023-09-10T02:33:20.061Z,6.80
2023-09-10T02:35:47.829Z,6.78
2023-09-10T02:38:15.304Z,6.22
2023-09-10T02:40:44.113Z,6.63
2023-09-10T02:43:11.751Z,6.03
2023-09-10T02:45:39.730Z,5.93
2023-09-10T02:48:07.667Z,6.00
2023-09-10T02:50:35.203Z,6.10
2023-09-10T02:53:02.668Z,5.80
2023-09-10T02:55:30.024Z,6.00
2023-09-10T02:57:57.288Z,5.70
2023-09-10T03:00:26.527Z,5.80
2023-09-10T03:02:55.464Z,5.68
2023-09-10T03:05:23.415Z,5.20
2023-09-10T03:07:55.467Z,4.57
2023-09-10T03:10:22.798Z,5.17
2023-09-10T03:12:50.191Z,5.03
2023-09-10T03:15:17.891Z,5.15
2023-09-10T03:17:45.586Z,5.20
2023-09-10T03:20:13.311Z,4.60
2023-09-10T03:22:41.430Z,6.00
2023-09-10T03:25:09.586Z,4.63
2023-09-10T03:27:37.561Z,4.43
2023-09-10T03:30:08.614Z,4.80
2023-09-10T03:32:36.322Z,4.38
2023-09-10T03:35:05.552Z,4.50
2023-09-10T03:37:33.225Z,4.32
2023-09-10T03:40:01.140Z,3.80
2023-09-10T03:42:28.481Z,4.00
2023-09-10T03:44:56.025Z,3.72
2023-09-10T03:47:24.023Z,4.10
2023-09-10T03:49:51.368Z,4.50
2023-09-10T03:52:20.527Z,4.25
2023-09-10T03:54:48.762Z,4.80
2023-09-10T03:57:16.271Z,4.35
2023-09-10T03:59:44.397Z,5.05
2023-09-10T04:02:14.824Z,5.10
2023-09-10T04:04:42.791Z,5.05
2023-09-10T04:07:10.248Z,5.40
2023-09-10T04:09:38.187Z,5.18
2023-09-10T04:12:06.092Z,4.68
2023-09-10T04:14:33.927Z,5.65
2023-09-10T04:17:01.617Z,5.95
2023-09-10T04:19:28.785Z,6.32
2023-09-10T04:21:56.320Z,5.78
2023-09-10T04:24:24.588Z,5.95
2023-09-10T04:26:52.190Z,6.05
2023-09-10T04:29:21.225Z,6.03
2023-09-10T04:31:49.275Z,6.07
2023-09-10T04:34:16.969Z,6.35
2023-09-10T04:36:44.388Z,5.60
2023-09-10T04:39:12.236Z,6.00
2023-09-10T04:41:42.051Z,5.32
2023-09-10T04:44:10.323Z,5.15
2023-09-10T04:46:38.393Z,4.57
2023-09-10T04:49:06.633Z,5.90
2023-09-10T04:51:34.044Z,13.10
2023-09-10T04:54:01.945Z,5.35
2023-09-10T04:56:29.147Z,4.47
2023-09-10T04:58:56.641Z,4.50
2023-09-10T05:01:24.172Z,4.75
2023-09-10T05:03:51.471Z,4.97
2023-09-10T05:06:20.933Z,4.15
2023-09-10T05:08:48.994Z,4.30
2023-09-10T05:11:18.286Z,3.80
2023-09-10T05:13:45.667Z,3.97
2023-09-10T05:16:13.281Z,4.13
2023-09-10T05:18:42.272Z,4.10
2023-09-10T05:21:10.542Z,4.05
2023-09-10T05:23:38.729Z,3.55
2023-09-10T05:26:06.779Z,3.80
2023-09-10T05:28:34.110Z,3.67
2023-09-10T05:31:09.100Z,3.28
2023-09-10T05:33:39.334Z,3.60
2023-09-10T05:36:06.993Z,3.67
2023-09-10T05:38:34.270Z,3.78
2023-09-10T05:41:03.195Z,3.33
2023-09-10T05:43:31.202Z,3.15
2023-09-10T05:45:58.562Z,3.35
2023-09-10T05:48:27.082Z,4.00
2023-09-10T05:50:58.248Z,10.18
2023-09-10T05:53:27.065Z,3.17
2023-09-10T05:55:55.003Z,3.60
2023-09-10T05:58:22.422Z,3.03
2023-09-10T06:00:52.884Z,2.90
2023-09-10T06:03:20.336Z,3.03
2023-09-10T06:05:49.607Z,2.80
2023-09-10T06:08:17.284Z,3.40
2023-09-10T06:10:45.607Z,3.10
2023-09-10T06:13:13.414Z,3.00
2023-09-10T06:15:41.764Z,3.33
2023-09-10T06:18:09.115Z,3.05
2023-09-10T06:20:36.569Z,3.13
2023-09-10T06:23:04.886Z,3.58
2023-09-10T06:25:33.589Z,3.50
2023-09-10T06:28:01.942Z,3.55
2023-09-10T06:30:29.728Z,3.30
2023-09-10T06:32:57.570Z,3.45
2023-09-10T06:35:26.609Z,3.20
2023-09-10T06:37:54.617Z,3.58
2023-09-10T06:40:21.963Z,3.10
2023-09-10T06:42:49.877Z,3.80
2023-09-10T06:45:32.388Z,6.67
2023-09-10T06:47:59.754Z,5.05
2023-09-10T06:50:27.266Z,3.83
2023-09-10T06:52:54.761Z,3.70
2023-09-10T06:55:22.463Z,3.45
2023-09-10T06:57:50.230Z,3.65
2023-09-10T07:00:18.526Z,3.72
2023-09-10T07:02:46.538Z,3.72
2023-09-10T07:05:14.440Z,3.58
2023-09-10T07:07:41.924Z,3.42
2023-09-10T07:10:11.356Z,3.55
2023-09-10T07:12:38.451Z,3.70
2023-09-10T07:15:06.652Z,3.75
2023-09-10T07:17:34.123Z,3.75
2023-09-10T07:20:01.640Z,4.20
2023-09-10T07:22:29.203Z,4.30
2023-09-10T07:24:56.984Z,4.05
2023-09-10T07:27:24.100Z,4.25
2023-09-10T07:29:51.904Z,3.20
2023-09-10T07:32:19.375Z,3.50
2023-09-10T07:34:46.663Z,3.45
2023-09-10T07:37:14.584Z,3.55
2023-09-10T07:39:42.068Z,3.40
2023-09-10T07:42:09.845Z,3.60
2023-09-10T07:44:37.243Z,3.17
2023-09-10T07:47:05.806Z,5.82
2023-09-10T07:49:35.635Z,3.58
2023-09-10T07:52:05.447Z,4.22
2023-09-10T07:54:32.722Z,3.47
2023-09-10T07:57:00.607Z,3.47
2023-09-10T07:59:28.121Z,3.20
2023-09-10T08:01:55.341Z,3.60
2023-09-10T08:04:22.947Z,3.38
2023-09-10T08:06:50.441Z,3.67
2023-09-10T08:09:17.587Z,5.38
2023-09-10T08:11:45.101Z,3.80
2023-09-10T08:14:13.016Z,3.40
2023-09-10T08:16:40.695Z,3.00
2023-09-10T08:19:08.371Z,3.20
2023-09-10T08:21:35.472Z,3.10
2023-09-10T08:24:03.171Z,3.47
2023-09-10T08:26:30.412Z,2.90
2023-09-10T08:28:57.678Z,7.72
2023-09-10T08:31:25.461Z,3.60
2023-09-10T08:33:52.612Z,2.92
2023-09-10T08:36:20.270Z,3.70
2023-09-10T08:38:48.784Z,3.47
2023-09-10T08:41:49.955Z,3.60
2023-09-10T08:44:20.901Z,4.25
2023-09-10T08:46:50.272Z,4.22
2023-09-10T08:49:17.494Z,3.72
2023-09-10T08:51:45.049Z,3.58
2023-09-10T08:54:12.638Z,3.55
2023-09-10T08:56:39.905Z,3.58
2023-09-10T08:59:07.325Z,3.53
2023-09-10T09:01:35.045Z,3.47
2023-09-10T09:04:02.886Z,3.15
2023-09-10T09:06:31.048Z,3.20
2023-09-10T09:08:58.467Z,3.00
2023-09-10T09:11:26.077Z,3.20
2023-09-10T09:13:53.678Z,3.20
2023-09-10T09:16:22.110Z,3.15
2023-09-10T09:18:49.774Z,3.13
2023-09-10T09:21:22.031Z,3.00
2023-09-10T09:24:09.704Z,3.50
2023-09-10T09:26:37.532Z,3.10
2023-09-10T09:29:05.303Z,3.60
2023-09-10T09:31:33.645Z,3.42
2023-09-10T09:34:00.845Z,2.92
2023-09-10T09:36:28.920Z,3.13
2023-09-10T09:38:56.872Z,2.88
2023-09-10T09:41:24.174Z,3.00
2023-09-10T09:43:52.046Z,3.22
2023-09-10T09:46:19.611Z,2.80
2023-09-10T09:48:47.484Z,2.85
2023-09-10T09:51:15.315Z,3.47
2023-09-10T09:53:43.780Z,3.13
2023-09-10T09:56:11.868Z,2.88
2023-09-10T09:58:39.854Z,3.22
2023-09-10T10:01:08.376Z,3.08
2023-09-10T10:03:36.018Z,3.28
2023-09-10T10:06:04.029Z,3.13
2023-09-10T10:08:31.627Z,3.17
2023-09-10T10:10:59.251Z,3.65
2023-09-10T10:13:27.735Z,3.60
2023-09-10T10:15:57.569Z,3.22
2023-09-10T10:18:29.919Z,3.20
2023-09-10T10:20:58.933Z,3.35
2023-09-10T10:23:27.253Z,2.92
2023-09-10T10:25:55.280Z,3.15
2023-09-10T10:28:22.728Z,3.67
2023-09-10T10:30:56.435Z,4.13
2023-09-10T10:33:25.393Z,3.15
2023-09-10T10:36:16.217Z,2.95
2023-09-10T10:38:46.997Z,3.42
2023-09-10T10:41:18.891Z,3.72
2023-09-10T10:43:48.333Z,3.65
2023-09-10T10:46:15.727Z,3.63
2023-09-10T10:48:43.967Z,3.08
2023-09-10T10:51:14.533Z,3.20
2023-09-10T10:53:42.622Z,3.72
2023-09-10T10:56:10.181Z,3.45
2023-09-10T10:58:41.488Z,3.45
2023-09-10T11:01:11.711Z,2.72
2023-09-10T11:03:39.265Z,3.20
2023-09-10T11:06:07.931Z,3.47
2023-09-10T11:08:36.330Z,3.60
2023-09-10T11:11:22.843Z,3.47
2023-09-10T11:14:07.298Z,3.40
2023-09-10T11:16:39.889Z,4.72
2023-09-10T11:19:07.145Z,4.07
2023-09-10T11:21:56.181Z,4.45
2023-09-10T11:24:23.541Z,3.97
2023-09-10T11:26:51.146Z,4.43
2023-09-10T11:29:21.471Z,5.47
2023-09-10T11:31:49.007Z,4.25
2023-09-10T11:34:16.360Z,4.07
2023-09-10T11:36:44.975Z,4.38
2023-09-10T11:39:16.316Z,4.15
2023-09-10T11:41:52.926Z,4.18
2023-09-10T11:44:20.691Z,5.13
2023-09-10T11:46:49.406Z,4.78
2023-09-10T11:49:16.659Z,4.85
2023-09-10T11:51:48.882Z,3.97
2023-09-10T11:54:17.779Z,4.88
2023-09-10T11:56:56.971Z,4.63
2023-09-10T11:59:30.852Z,5.18
2023-09-10T12:01:58.878Z,5.03
2023-09-10T12:04:33.552Z,4.18
2023-09-10T12:07:04.227Z,4.43
2023-09-10T12:09:32.334Z,4.95
2023-09-10T12:12:07.823Z,4.53
2023-09-10T12:14:35.478Z,4.45
2023-09-10T12:17:03.997Z,4.65
2023-09-10T12:19:32.699Z,4.95
2023-09-10T12:22:00.717Z,5.50
2023-09-10T12:24:28.044Z,6.20
2023-09-10T12:26:55.428Z,4.95
2023-09-10T12:29:23.130Z,5.82
2023-09-10T12:31:54.162Z,7.03
2023-09-10T12:34:21.707Z,9.65
2023-09-10T12:36:49.797Z,11.75
2023-09-10T12:39:24.802Z,8.77
2023-09-10T12:42:03.030Z,8.23
2023-09-10T12:44:31.728Z,9.65
2023-09-10T12:46:59.518Z,6.57
2023-09-10T12:49:27.164Z,6.38
2023-09-10T12:51:56.664Z,5.90
2023-09-10T12:54:24.454Z,6.22
2023-09-10T12:56:54.944Z,6.15
2023-09-10T12:59:22.760Z,6.25
2023-09-10T13:01:51.108Z,8.02
2023-09-10T13:04:19.314Z,9.45
2023-09-10T13:06:47.043Z,9.40
2023-09-10T13:09:14.705Z,7.88
2023-09-10T13:11:43.915Z,8.90
2023-09-10T13:14:11.266Z,8.35
2023-09-10T13:16:38.783Z,8.02
2023-09-10T13:19:06.525Z,6.65
2023-09-10T13:21:34.170Z,8.50
2023-09-10T13:24:01.619Z,8.57
2023-09-10T13:26:29.226Z,7.90
2023-09-10T13:28:57.205Z,8.20
2023-09-10T13:31:24.517Z,8.70
2023-09-10T13:33:54.794Z,10.15
2023-09-10T13:36:22.123Z,11.00
2023-09-10T13:38:49.685Z,10.27
2023-09-10T13:41:17.255Z,11.43
2023-09-10T13:43:45.049Z,10.07
2023-09-10T13:46:12.693Z,10.68
2023-09-10T13:48:40.238Z,14.10
2023-09-10T13:51:09.156Z,12.35
2023-09-10T13:53:43.504Z,8.98
2023-09-10T13:56:12.098Z,10.98
2023-09-10T13:58:39.717Z,9.30
2023-09-10T14:01:08.827Z,10.65
2023-09-10T14:03:36.295Z,12.70
2023-09-10T14:06:05.456Z,14.00
2023-09-10T14:08:33.097Z,15.23
2023-09-10T14:11:00.872Z,11.73
2023-09-10T14:13:28.541Z,10.15
2023-09-10T14:15:56.107Z,9.75
2023-09-10T14:18:23.680Z,13.80
2023-09-10T14:20:51.376Z,10.52
2023-09-10T14:23:19.190Z,10.65
2023-09-10T14:25:48.733Z,10.45
2023-09-10T14:28:19.544Z,11.40
2023-09-10T14:30:46.869Z,11.60
2023-09-10T14:33:14.142Z,11.48
2023-09-10T14:35:43.267Z,10.88
2023-09-10T14:38:11.093Z,11.05
2023-09-10T14:40:38.421Z,10.43
2023-09-10T14:43:09.031Z,9.02
2023-09-10T14:45:37.618Z,9.93
2023-09-10T14:48:05.542Z,6.75
2023-09-10T14:50:33.110Z,5.40
2023-09-10T14:53:03.606Z,7.03
2023-09-10T14:55:32.596Z,6.45
2023-09-10T14:57:59.914Z,7.03
2023-09-10T15:00:27.398Z,6.10
2023-09-10T15:02:54.754Z,6.75
2023-09-10T15:05:22.414Z,5.65
2023-09-10T15:07:50.220Z,5.05
2023-09-10T15:10:17.606Z,5.20
2023-09-10T15:12:45.414Z,4.97
2023-09-10T15:15:13.240Z,4.63
2023-09-10T15:17:40.950Z,4.35
2023-09-10T15:20:11.977Z,4.32
2023-09-10T15:22:40.173Z,4.60
2023-09-10T15:25:09.391Z,4.40
2023-09-10T15:27:37.137Z,4.25
2023-09-10T15:30:05.321Z,4.85
2023-09-10T15:32:32.846Z,4.50
2023-09-10T15:35:00.622Z,3.80
2023-09-10T15:37:28.545Z,4.15
2023-09-10T15:39:56.018Z,3.80
2023-09-10T15:42:23.546Z,4.13
2023-09-10T15:44:51.044Z,3.60
2023-09-10T15:47:18.843Z,3.78
2023-09-10T15:49:46.194Z,4.10
2023-09-10T15:52:14.547Z,3.33
2023-09-10T15:54:41.938Z,3.53
2023-09-10T15:57:09.629Z,3.55
2023-09-10T15:59:37.077Z,3.97
2023-09-10T16:02:32.909Z,3.60
2023-09-10T16:05:01.125Z,3.45
2023-09-10T16:07:28.721Z,3.80
2023-09-10T16:09:56.277Z,3.70
2023-09-10T16:12:23.713Z,3.78
2023-09-10T16:14:50.908Z,4.22
2023-09-10T16:17:18.575Z,3.80
2023-09-10T16:19:46.132Z,5.00
2023-09-10T16:22:14.680Z,5.03
2023-09-10T16:24:41.800Z,8.02
2023-09-10T16:27:09.313Z,8.55
2023-09-10T16:29:37.455Z,9.70
2023-09-10T16:32:05.582Z,10.00
2023-09-10T16:34:32.894Z,12.77
2023-09-10T16:37:00.396Z,11.63
2023-09-10T16:39:28.198Z,13.52
2023-09-10T16:41:55.486Z,14.43
2023-09-10T16:44:28.663Z,15.43
2023-09-10T16:46:59.357Z,14.18
2023-09-10T16:49:27.216Z,13.93
2023-09-10T16:51:54.583Z,15.50
2023-09-10T16:54:22.112Z,14.82
2023-09-10T16:56:49.672Z,14.93
2023-09-10T16:59:17.501Z,14.23
2023-09-10T17:01:44.832Z,16.05
2023-09-10T17:04:12.227Z,14.20
2023-09-10T17:06:39.761Z,15.35
2023-09-10T17:09:07.171Z,11.85
2023-09-10T17:11:35.107Z,12.57
2023-09-10T17:14:02.613Z,10.77
2023-09-10T17:16:29.939Z,12.98
2023-09-10T17:18:57.206Z,13.98
2023-09-10T17:21:28.069Z,11.57
2023-09-10T17:23:55.699Z,10.93
2023-09-10T17:26:23.291Z,12.10
2023-09-10T17:28:51.431Z,13.45
2023-09-10T17:31:19.346Z,12.52
2023-09-10T17:33:46.464Z,12.70
2023-09-10T17:36:13.841Z,11.93
2023-09-10T17:38:41.487Z,11.85
2023-09-10T17:41:08.943Z,13.25
2023-09-10T17:43:36.849Z,13.02
2023-09-10T17:46:04.421Z,12.00
2023-09-10T17:48:31.967Z,13.00
2023-09-10T17:51:05.175Z,13.70
2023-09-10T17:53:32.999Z,13.15
2023-09-10T17:56:00.431Z,11.05
2023-09-10T17:58:28.439Z,12.75
2023-09-10T18:00:55.844Z,13.05
2023-09-10T18:03:27.070Z,12.13
2023-09-10T18:05:54.295Z,12.57
2023-09-10T18:08:21.832Z,15.02
2023-09-10T18:10:51.628Z,15.00
2023-09-10T18:13:19.007Z,14.80
2023-09-10T18:15:46.586Z,14.32
2023-09-10T18:18:14.010Z,15.25
2023-09-10T18:20:41.809Z,15.82
2023-09-10T18:23:09.817Z,17.33
2023-09-10T18:25:36.919Z,15.75
2023-09-10T18:28:04.632Z,16.00
2023-09-10T18:30:32.525Z,16.30
2023-09-10T18:33:00.481Z,16.05
2023-09-10T18:35:28.120Z,18.08
2023-09-10T18:37:55.770Z,18.90
2023-09-10T18:40:23.169Z,17.92
2023-09-10T18:42:50.536Z,17.60
2023-09-10T18:45:18.352Z,17.52
2023-09-10T18:47:51.736Z,18.55
2023-09-10T18:50:19.187Z,18.85
2023-09-10T18:52:46.436Z,20.48
2023-09-10T18:55:15.261Z,19.55
2023-09-10T18:57:42.478Z,22.67
2023-09-10T19:00:10.906Z,20.52
2023-09-10T19:02:38.457Z,19.13
2023-09-10T19:05:06.578Z,19.17
2023-09-10T19:07:34.246Z,19.17
2023-09-10T19:10:01.794Z,19.52
2023-09-10T19:12:30.108Z,19.17
2023-09-10T19:14:57.300Z,19.35
2023-09-10T19:17:24.965Z,20.77
2023-09-10T19:19:52.625Z,18.50
2023-09-10T19:22:20.009Z,18.52
2023-09-10T19:24:47.162Z,17.83
2023-09-10T19:27:16.919Z,16.95
2023-09-10T19:29:44.471Z,17.10
2023-09-10T19:32:11.910Z,17.98
2023-09-10T19:34:39.522Z,17.35
2023-09-10T19:37:09.831Z,18.17
2023-09-10T19:39:38.275Z,17.25
2023-09-10T19:42:05.905Z,18.05
2023-09-10T19:44:36.746Z,17.85
2023-09-10T19:47:04.622Z,18.02
2023-09-10T19:49:35.211Z,18.00
2023-09-10T19:52:02.405Z,15.85
2023-09-10T19:54:30.212Z,16.90
2023-09-10T19:56:57.755Z,17.08
2023-09-10T19:59:25.757Z,17.13
2023-09-10T20:01:54.033Z,17.92
2023-09-10T20:04:21.304Z,17.92
2023-09-10T20:06:59.372Z,18.50
2023-09-10T20:09:27.884Z,18.80
2023-09-10T20:11:55.145Z,17.83
2023-09-10T20:14:23.108Z,18.63
2023-09-10T20:16:50.628Z,19.08
2023-09-10T20:19:19.012Z,18.80
2023-09-10T20:21:47.700Z,18.05
2023-09-10T20:24:15.319Z,17.60
2023-09-10T20:26:42.576Z,19.15
2023-09-10T20:29:09.876Z,18.10
2023-09-10T20:31:37.318Z,17.50
2023-09-10T20:34:05.083Z,18.00
2023-09-10T20:36:32.398Z,18.52
2023-09-10T20:39:00.103Z,22.00
2023-09-10T20:41:27.325Z,21.60
2023-09-10T20:43:55.167Z,20.50
2023-09-10T20:46:22.708Z,21.20
2023-09-10T20:48:50.281Z,19.05
2023-09-10T20:51:32.474Z,17.60
2023-09-10T20:54:00.430Z,17.37
2023-09-10T20:56:27.757Z,15.55
2023-09-10T20:58:55.295Z,16.30
2023-09-10T21:01:23.055Z,16.25
2023-09-10T21:03:50.771Z,14.05
2023-09-10T21:06:18.659Z,12.25
2023-09-10T21:08:46.102Z,12.23
2023-09-10T21:11:14.542Z,12.85
2023-09-10T21:13:42.803Z,12.80
2023-09-10T21:16:12.402Z,13.00
2023-09-10T21:18:39.742Z,13.45
2023-09-10T21:21:07.383Z,14.35
2023-09-10T21:23:35.662Z,14.50
2023-09-10T21:26:06.034Z,15.98
2023-09-10T21:28:33.539Z,14.43
2023-09-10T21:31:01.110Z,16.25
2023-09-10T21:33:28.354Z,16.70
2023-09-10T21:35:56.609Z,14.63
2023-09-10T21:38:24.134Z,16.55
2023-09-10T21:40:51.394Z,15.35
2023-09-10T21:43:19.166Z,16.08
2023-09-10T21:45:46.497Z,15.90
2023-09-10T21:48:16.352Z,16.05
2023-09-10T21:50:44.211Z,16.30
2023-09-10T21:53:11.891Z,15.35
2023-09-10T21:55:39.592Z,16.80
2023-09-10T21:58:07.118Z,16.63
2023-09-10T22:00:34.759Z,15.93
2023-09-10T22:03:02.496Z,15.93
2023-09-10T22:05:29.988Z,16.10
2023-09-10T22:07:57.667Z,16.02
2023-09-10T22:10:25.369Z,15.40
2023-09-10T22:12:52.993Z,16.45
2023-09-10T22:15:20.787Z,17.25
2023-09-10T22:17:48.274Z,15.98
2023-09-10T22:20:15.958Z,15.75
2023-09-10T22:22:43.283Z,15.80
2023-09-10T22:25:14.171Z,15.40
2023-09-10T22:27:42.102Z,14.20
2023-09-10T22:30:10.419Z,14.85
2023-09-10T22:32:38.021Z,14.93
2023-09-10T22:35:06.340Z,15.20
2023-09-10T22:37:33.870Z,15.18
2023-09-10T22:40:01.503Z,15.50
2023-09-10T22:42:29.227Z,15.43
2023-09-10T22:44:57.192Z,14.32
2023-09-10T22:47:24.822Z,15.13
2023-09-10T22:49:53.455Z,15.70
2023-09-10T22:52:20.816Z,15.25
2023-09-10T22:54:47.953Z,15.57
2023-09-10T22:57:15.728Z,20.95
2023-09-10T22:59:43.048Z,24.00
2023-09-10T23:02:10.727Z,19.60
2023-09-10T23:04:38.308Z,16.75
2023-09-10T23:07:06.057Z,14.57
2023-09-10T23:09:33.566Z,16.17
2023-09-10T23:12:00.780Z,14.82
2023-09-10T23:14:28.341Z,14.35
2023-09-10T23:16:55.557Z,13.80
2023-09-10T23:19:23.104Z,14.60
2023-09-10T23:21:50.666Z,15.77
2023-09-10T23:24:18.237Z,15.52
2023-09-10T23:26:49.992Z,14.60
2023-09-10T23:29:18.189Z,15.25
2023-09-10T23:31:48.386Z,15.05
2023-09-10T23:34:16.791Z,14.80
2023-09-10T23:36:44.103Z,14.05
2023-09-10T23:39:11.587Z,14.60
2023-09-10T23:41:39.254Z,13.45
2023-09-10T23:44:06.567Z,13.77
2023-09-10T23:46:34.265Z,13.23
2023-09-10T23:49:01.593Z,12.85
2023-09-10T23:51:29.666Z,12.60
2023-09-10T23:53:57.046Z,12.25
2023-09-10T23:56:24.814Z,12.32
2023-09-10T23:58:52.446Z,12.25
